Time;durP1;ratioP1;P1;durP2;ratioP2;P2;SDS_P1;SDS_P2;PMS_P1;PMS_P2;Temp;Humidity;BMP_temperature;BMP_pressure;BME280_temperature;BME280_humidity;BME280_pressure;Samples;Min_cycle;Max_cycle;Signal;HPM_P1;HPM_P2
2022/01/20 00:01:12;;;;;;;17.45;9.40;;;;;;;;;;4976131;28;20620;-82
2022/01/20 00:03:40;;;;;;;15.75;9.50;;;;;;;;;;4980157;28;20087;-81
2022/01/20 00:28:14;;;;;;;12.88;6.70;;;;;;;;;;4976254;28;20115;-81
2022/01/20 00:38:16;;;;;;;11.85;6.05;;;;;;;;;;4976630;28;20043;-80
2022/01/20 00:40:42;;;;;;;12.70;6.63;;;;;;;;;;4975905;28;20081;-80
2022/01/20 00:43:08;;;;;;;12.35;6.32;;;;;;;;;;4977329;28;20095;-81
2022/01/20 00:45:34;;;;;;;11.77;5.97;;;;;;;;;;4982256;28;20487;-80
2022/01/20 00:48:01;;;;;;;11.65;5.80;;;;;;;;;;4974430;28;21785;-80
2022/01/20 00:50:27;;;;;;;12.18;5.50;;;;;;;;;;4979796;28;20068;-81
2022/01/20 00:52:53;;;;;;;10.55;5.30;;;;;;;;;;4976870;28;20130;-79
2022/01/20 00:55:20;;;;;;;10.90;4.97;;;;;;;;;;4980310;28;20026;-79
2022/01/20 00:57:47;;;;;;;10.57;4.78;;;;;;;;;;4979222;28;20016;-79
2022/01/20 01:00:13;;;;;;;;;;;;;;;;;;4983386;28;20626;-80
2022/01/20 01:02:39;;;;;;;10.32;4.45;;;;;;;;;;4980480;28;19913;-80
2022/01/20 01:05:05;;;;;;;;;;;;;;;;;;4978301;28;20025;-80
2022/01/20 01:07:49;;;;;;;9.63;4.70;;;;;;;;;;4979647;28;20024;-80
2022/01/20 01:10:17;;;;;;;9.35;4.20;;;;;;;;;;4979653;28;20033;-80
2022/01/20 01:15:23;;;;;;;8.85;4.03;;;;;;;;;;4981730;28;20400;-81
2022/01/20 01:21:07;;;;;;;8.93;4.20;;;;;;;;;;4983010;28;21098;-79
2022/01/20 01:23:21;;;;;;;8.60;3.70;;;;;;;;;;4986082;28;20041;-79
2022/01/20 01:25:47;;;;;;;9.18;4.25;;;;;;;;;;4983402;28;20034;-82
2022/01/20 01:28:13;;;;;;;9.00;4.10;;;;;;;;;;4986251;28;20036;-81
2022/01/20 01:33:21;;;;;;;10.05;4.20;;;;;;;;;;4985435;28;20040;-80
2022/01/20 01:35:55;;;;;;;9.10;4.40;;;;;;;;;;4982124;28;20038;-79
2022/01/20 01:40:51;;;;;;;8.60;4.10;;;;;;;;;;4980433;28;20766;-81
2022/01/20 01:43:25;;;;;;;10.05;4.10;;;;;;;;;;4987719;28;20065;-81
2022/01/20 01:45:51;;;;;;;9.00;4.43;;;;;;;;;;4986074;28;20555;-80
2022/01/20 01:48:17;;;;;;;9.93;4.55;;;;;;;;;;4984937;28;20068;-78
2022/01/20 01:50:44;;;;;;;9.10;4.32;;;;;;;;;;4987466;28;20122;-81
2022/01/20 01:53:10;;;;;;;10.77;4.95;;;;;;;;;;4992821;28;20030;-82
2022/01/20 01:55:37;;;;;;;9.77;4.28;;;;;;;;;;4991404;28;20021;-81
2022/01/20 01:58:03;;;;;;;10.77;4.20;;;;;;;;;;4986854;28;20101;-81
2022/01/20 02:00:30;;;;;;;;;;;;;;;;;;4986270;28;20120;-82
2022/01/20 02:02:58;;;;;;;9.63;4.78;;;;;;;;;;4986920;28;19921;-79
2022/01/20 02:05:24;;;;;;;10.30;4.82;;;;;;;;;;4988790;28;20084;-80
2022/01/20 02:18:52;;;;;;;9.63;4.13;;;;;;;;;;4973749;28;20131;-80
2022/01/20 02:21:18;;;;;;;8.80;3.90;;;;;;;;;;4969672;28;20430;-79
2022/01/20 02:23:45;;;;;;;9.02;4.10;;;;;;;;;;4967314;28;20026;-79
2022/01/20 02:26:11;;;;;;;8.82;3.78;;;;;;;;;;4971698;28;20030;-80
2022/01/20 02:28:38;;;;;;;8.15;3.58;;;;;;;;;;4968280;28;20037;-78
2022/01/20 02:31:04;;;;;;;;;;;;;;;;;;4970839;28;20077;-80
2022/01/20 02:33:31;;;;;;;7.60;3.08;;;;;;;;;;4969326;28;20153;-79
2022/01/20 02:36:01;;;;;;;7.95;3.33;;;;;;;;;;4970144;28;20623;-80
2022/01/20 02:38:35;;;;;;;7.75;3.17;;;;;;;;;;4972035;28;20787;-80
2022/01/20 02:46:32;;;;;;;8.52;3.58;;;;;;;;;;4976520;28;20053;-80
2022/01/20 02:48:58;;;;;;;9.80;4.00;;;;;;;;;;4966559;28;20078;-80
2022/01/20 02:51:25;;;;;;;9.65;4.35;;;;;;;;;;4977199;28;20045;-80
2022/01/20 02:53:52;;;;;;;7.93;3.50;;;;;;;;;;4979160;28;20326;-80
2022/01/20 02:56:18;;;;;;;;;;;;;;;;;;4979788;28;20034;-80
2022/01/20 02:58:44;;;;;;;8.82;3.80;;;;;;;;;;4981691;28;19917;-81
2022/01/20 03:01:10;;;;;;;8.00;3.30;;;;;;;;;;4981930;28;20056;-80
2022/01/20 03:03:36;;;;;;;7.97;2.97;;;;;;;;;;4979472;28;20026;-80
2022/01/20 03:06:04;;;;;;;7.95;3.25;;;;;;;;;;4976329;28;20049;-81
2022/01/20 03:08:30;;;;;;;7.93;2.90;;;;;;;;;;4979935;28;20495;-81
2022/01/20 03:10:57;;;;;;;6.88;2.80;;;;;;;;;;4973678;28;20026;-80
2022/01/20 03:13:23;;;;;;;6.80;2.75;;;;;;;;;;4981418;28;20029;-79
2022/01/20 03:15:49;;;;;;;7.53;2.75;;;;;;;;;;4978578;28;20026;-80
2022/01/20 03:18:15;;;;;;;7.00;2.70;;;;;;;;;;4980057;28;20018;-80
2022/01/20 03:20:41;;;;;;;8.45;3.35;;;;;;;;;;4977359;28;20050;-80
2022/01/20 03:23:08;;;;;;;11.23;5.28;;;;;;;;;;4978608;28;20089;-80
2022/01/20 03:25:34;;;;;;;11.68;5.93;;;;;;;;;;4978644;28;20034;-80
2022/01/20 03:28:00;;;;;;;12.20;6.65;;;;;;;;;;4976972;28;20489;-80
2022/01/20 03:30:27;;;;;;;13.63;6.72;;;;;;;;;;4977964;28;20069;-80
2022/01/20 03:32:53;;;;;;;22.58;12.25;;;;;;;;;;4983711;28;20113;-80
2022/01/20 03:35:19;;;;;;;20.13;11.60;;;;;;;;;;4983246;28;20037;-80
2022/01/20 03:37:46;;;;;;;20.00;10.98;;;;;;;;;;4976507;28;20022;-80
2022/01/20 03:40:12;;;;;;;25.15;15.02;;;;;;;;;;4984734;28;20033;-80
2022/01/20 03:42:38;;;;;;;27.13;15.23;;;;;;;;;;4980067;28;20034;-80
2022/01/20 03:45:05;;;;;;;23.65;14.40;;;;;;;;;;4981229;28;20045;-80
2022/01/20 03:47:33;;;;;;;24.88;14.55;;;;;;;;;;4980650;28;20031;-81
2022/01/20 03:52:25;;;;;;;22.92;13.77;;;;;;;;;;4985138;28;20046;-80
2022/01/20 03:54:52;;;;;;;25.67;15.05;;;;;;;;;;4976799;28;20045;-80
2022/01/20 03:57:18;;;;;;;26.58;15.25;;;;;;;;;;4980568;28;20045;-80
2022/01/20 03:59:44;;;;;;;26.13;15.85;;;;;;;;;;4982016;28;20037;-79
2022/01/20 04:02:11;;;;;;;24.70;15.63;;;;;;;;;;4976754;28;20034;-80
2022/01/20 04:04:37;;;;;;;24.70;14.73;;;;;;;;;;4978614;28;20046;-82
2022/01/20 04:07:03;;;;;;;25.00;15.00;;;;;;;;;;4975997;28;20039;-78
2022/01/20 04:09:29;;;;;;;;;;;;;;;;;;4982490;28;20034;-81
2022/01/20 04:11:56;;;;;;;24.00;14.18;;;;;;;;;;4979146;28;19924;-79
2022/01/20 04:14:24;;;;;;;22.33;14.15;;;;;;;;;;4976884;28;20023;-81
2022/01/20 04:19:26;;;;;;;30.27;16.70;;;;;;;;;;4983691;28;20092;-80
2022/01/20 04:21:52;;;;;;;28.95;15.90;;;;;;;;;;4977555;28;20510;-81
2022/01/20 04:24:18;;;;;;;24.77;15.23;;;;;;;;;;4989167;28;20481;-81
2022/01/20 04:26:45;;;;;;;24.95;15.07;;;;;;;;;;4982648;28;20026;-81
2022/01/20 04:29:12;;;;;;;26.95;15.93;;;;;;;;;;4985260;28;20030;-81
2022/01/20 04:31:38;;;;;;;;;;;;;;;;;;4979880;28;20184;-80
2022/01/20 04:34:05;;;;;;;24.38;15.27;;;;;;;;;;4980840;28;20688;-81
2022/01/20 04:36:33;;;;;;;28.58;16.73;;;;;;;;;;4983156;28;20025;-80
2022/01/20 04:39:01;;;;;;;26.75;16.30;;;;;;;;;;4980084;28;20037;-81
2022/01/20 04:41:30;;;;;;;29.75;16.65;;;;;;;;;;4980811;28;20033;-79
2022/01/20 04:43:57;;;;;;;30.35;16.85;;;;;;;;;;4986096;28;20030;-80
2022/01/20 04:46:36;;;;;;;27.58;14.80;;;;;;;;;;4980394;28;20061;-79
2022/01/20 04:59:30;;;;;;;23.63;13.48;;;;;;;;;;4983428;28;20127;-81
2022/01/20 05:01:56;;;;;;;21.15;13.00;;;;;;;;;;4982408;28;20029;-79
2022/01/20 05:04:24;;;;;;;20.10;11.55;;;;;;;;;;4986512;28;20037;-78
2022/01/20 05:06:53;;;;;;;18.83;11.30;;;;;;;;;;4988229;28;20037;-79
2022/01/20 05:09:21;;;;;;;21.25;11.45;;;;;;;;;;4982984;28;20046;-79
2022/01/20 05:11:51;;;;;;;19.67;11.35;;;;;;;;;;4978683;28;20653;-79
2022/01/20 05:14:18;;;;;;;22.05;11.85;;;;;;;;;;4989575;28;20042;-79
2022/01/20 05:16:44;;;;;;;18.98;11.20;;;;;;;;;;4983950;28;20109;-79
2022/01/20 05:19:10;;;;;;;19.38;11.57;;;;;;;;;;4987186;28;20511;-79
2022/01/20 05:21:36;;;;;;;18.83;11.20;;;;;;;;;;4985995;28;20027;-79
2022/01/20 05:24:03;;;;;;;20.73;10.82;;;;;;;;;;4981416;28;20121;-79
2022/01/20 05:26:30;;;;;;;18.15;10.70;;;;;;;;;;4983441;28;20034;-79
2022/01/20 05:28:56;;;;;;;18.70;10.32;;;;;;;;;;4981710;28;20644;-78
2022/01/20 05:31:22;;;;;;;15.43;9.30;;;;;;;;;;4987480;28;20034;-81
2022/01/20 05:33:48;;;;;;;17.00;8.63;;;;;;;;;;4985990;28;20030;-79
2022/01/20 05:36:14;;;;;;;14.40;7.70;;;;;;;;;;4987663;28;20065;-81
2022/01/20 05:38:41;;;;;;;12.88;7.03;;;;;;;;;;4979805;28;20018;-81
2022/01/20 05:41:07;;;;;;;11.68;6.35;;;;;;;;;;4986271;28;20689;-81
2022/01/20 05:43:33;;;;;;;12.20;5.85;;;;;;;;;;4980597;28;20484;-81
2022/01/20 05:46:02;;;;;;;11.15;6.25;;;;;;;;;;4980497;28;20073;-80
2022/01/20 05:48:35;;;;;;;11.98;5.70;;;;;;;;;;4981917;28;20030;-79
2022/01/20 05:51:02;;;;;;;12.65;6.00;;;;;;;;;;4980887;28;20038;-79
2022/01/20 05:53:29;;;;;;;10.73;5.40;;;;;;;;;;4979201;28;20517;-79
2022/01/20 05:55:55;;;;;;;11.50;5.25;;;;;;;;;;4983580;28;20089;-79
2022/01/20 05:58:21;;;;;;;9.55;5.05;;;;;;;;;;4980471;28;20022;-79
2022/01/20 06:00:48;;;;;;;10.18;4.70;;;;;;;;;;4978536;28;20038;-79
2022/01/20 06:05:59;;;;;;;10.43;4.07;;;;;;;;;;4984442;28;20169;-79
2022/01/20 06:08:25;;;;;;;9.48;4.38;;;;;;;;;;4981257;28;20040;-80
2022/01/20 06:10:52;;;;;;;7.63;3.78;;;;;;;;;;4979219;28;20030;-79
2022/01/20 06:13:18;;;;;;;8.90;4.05;;;;;;;;;;4979325;28;20034;-79
2022/01/20 06:15:45;;;;;;;8.43;4.00;;;;;;;;;;4979397;28;20547;-80
2022/01/20 06:18:11;;;;;;;8.13;3.95;;;;;;;;;;4982264;28;20092;-80
2022/01/20 06:20:38;;;;;;;8.90;4.10;;;;;;;;;;4980669;28;20042;-80
2022/01/20 06:23:08;;;;;;;9.20;4.30;;;;;;;;;;4978782;28;20044;-79
2022/01/20 06:25:35;;;;;;;8.57;4.00;;;;;;;;;;4985625;28;20037;-79
2022/01/20 06:28:01;;;;;;;8.02;3.63;;;;;;;;;;4982032;28;20026;-79
2022/01/20 06:30:27;;;;;;;;;;;;;;;;;;4986959;28;20050;-79
2022/01/20 06:32:54;;;;;;;9.60;3.80;;;;;;;;;;4979633;28;20287;-80
2022/01/20 06:35:20;;;;;;;9.90;4.45;;;;;;;;;;4987639;28;20117;-80
2022/01/20 06:37:46;;;;;;;;;;;;;;;;;;4986423;28;20667;-79
2022/01/20 06:40:13;;;;;;;8.70;4.07;;;;;;;;;;4985543;28;19921;-80
2022/01/20 06:42:40;;;;;;;8.43;3.45;;;;;;;;;;4989585;28;20129;-80
2022/01/20 06:45:07;;;;;;;7.78;3.42;;;;;;;;;;4989289;28;20385;-80
2022/01/20 06:47:33;;;;;;;7.97;3.67;;;;;;;;;;4994207;28;20081;-80
2022/01/20 06:50:00;;;;;;;8.50;3.85;;;;;;;;;;4989777;28;20061;-79
2022/01/20 06:52:27;;;;;;;7.43;3.50;;;;;;;;;;4985483;28;20171;-78
2022/01/20 06:54:53;;;;;;;9.25;3.95;;;;;;;;;;4984015;28;20022;-81
2022/01/20 06:57:19;;;;;;;9.32;4.35;;;;;;;;;;4982238;28;20121;-79
2022/01/20 06:59:45;;;;;;;9.70;4.70;;;;;;;;;;4983783;28;20021;-78
2022/01/20 07:02:12;;;;;;;8.20;4.35;;;;;;;;;;4985932;28;20114;-82
2022/01/20 07:04:38;;;;;;;8.77;4.38;;;;;;;;;;4984743;28;20025;-81
2022/01/20 07:07:05;;;;;;;9.93;4.40;;;;;;;;;;4985702;28;20531;-80
2022/01/20 07:09:34;;;;;;;9.82;4.40;;;;;;;;;;4985698;28;20041;-79
2022/01/20 07:12:04;;;;;;;10.07;4.20;;;;;;;;;;4980084;28;20030;-80
2022/01/20 07:14:30;;;;;;;11.43;4.88;;;;;;;;;;4982756;28;20370;-80
2022/01/20 07:16:56;;;;;;;;;;;;;;;;;;4978922;28;20056;-80
2022/01/20 07:19:23;;;;;;;9.75;4.50;;;;;;;;;;4983347;28;19957;-79
2022/01/20 07:21:49;;;;;;;9.32;3.90;;;;;;;;;;4983790;28;20066;-79
2022/01/20 07:24:15;;;;;;;9.75;4.72;;;;;;;;;;4985573;28;20032;-79
2022/01/20 07:26:41;;;;;;;11.07;4.90;;;;;;;;;;4985381;28;20021;-80
2022/01/20 07:29:15;;;;;;;10.13;5.30;;;;;;;;;;4989305;28;20037;-80
2022/01/20 07:31:42;;;;;;;10.30;4.68;;;;;;;;;;4985244;28;20041;-79
2022/01/20 07:34:08;;;;;;;;;;;;;;;;;;4994595;28;20015;-80
2022/01/20 07:36:34;;;;;;;10.57;4.00;;;;;;;;;;5006890;28;19905;-82
2022/01/20 07:39:00;;;;;;;10.15;4.35;;;;;;;;;;4998115;28;20082;-82
2022/01/20 07:41:26;;;;;;;10.23;5.00;;;;;;;;;;5006513;28;20032;-80
2022/01/20 07:43:53;;;;;;;12.38;5.72;;;;;;;;;;5000050;28;20023;-79
2022/01/20 07:46:19;;;;;;;;;;;;;;;;;;5001740;28;20022;-80
2022/01/20 07:48:45;;;;;;;11.80;5.38;;;;;;;;;;5000668;28;19993;-82
2022/01/20 07:51:11;;;;;;;12.50;5.55;;;;;;;;;;5001700;28;20113;-79
2022/01/20 07:53:38;;;;;;;12.93;5.75;;;;;;;;;;5000049;28;20918;-83
2022/01/20 07:56:05;;;;;;;12.43;6.35;;;;;;;;;;5000811;28;20088;-82
2022/01/20 07:58:32;;;;;;;15.95;7.10;;;;;;;;;;4997337;28;20068;-81
2022/01/20 08:00:58;;;;;;;14.48;6.63;;;;;;;;;;5005357;28;20239;-80
2022/01/20 08:03:24;;;;;;;13.50;7.13;;;;;;;;;;5004736;28;20029;-80
2022/01/20 08:05:51;;;;;;;12.95;6.78;;;;;;;;;;5002042;28;20029;-80
2022/01/20 08:08:17;;;;;;;14.38;7.18;;;;;;;;;;5009036;28;20053;-81
2022/01/20 08:10:43;;;;;;;14.05;6.43;;;;;;;;;;5004617;28;20027;-79
2022/01/20 08:13:09;;;;;;;15.07;7.18;;;;;;;;;;5010773;28;20010;-81
2022/01/20 08:15:35;;;;;;;12.55;5.97;;;;;;;;;;5008884;28;20029;-80
2022/01/20 08:18:02;;;;;;;11.43;5.97;;;;;;;;;;5004470;28;20036;-79
2022/01/20 08:20:30;;;;;;;13.18;6.47;;;;;;;;;;5004517;28;20419;-79
2022/01/20 08:22:56;;;;;;;12.13;5.82;;;;;;;;;;5014158;28;20045;-78
2022/01/20 08:25:23;;;;;;;13.50;5.35;;;;;;;;;;5009163;28;20046;-79
2022/01/20 08:27:50;;;;;;;11.27;4.93;;;;;;;;;;5009454;28;20051;-80
2022/01/20 08:30:16;;;;;;;;;;;;;;;;;;5010621;28;20053;-79
2022/01/20 08:32:43;;;;;;;10.07;4.60;;;;;;;;;;5010388;28;19933;-78
2022/01/20 08:35:10;;;;;;;10.63;4.97;;;;;;;;;;5009383;28;20326;-80
2022/01/20 08:37:37;;;;;;;10.13;5.10;;;;;;;;;;5011590;28;20038;-80
2022/01/20 08:40:05;;;;;;;10.40;4.47;;;;;;;;;;5006138;28;20049;-80
2022/01/20 08:42:32;;;;;;;11.13;4.43;;;;;;;;;;5014067;28;20029;-79
2022/01/20 08:44:59;;;;;;;13.52;4.30;;;;;;;;;;5009174;28;20054;-79
2022/01/20 08:47:26;;;;;;;10.02;4.60;;;;;;;;;;4995514;28;20032;-79
2022/01/20 08:49:52;;;;;;;9.77;4.53;;;;;;;;;;4990020;28;20484;-78
2022/01/20 08:52:19;;;;;;;9.65;4.53;;;;;;;;;;5000381;28;20044;-79
2022/01/20 08:54:47;;;;;;;10.25;3.90;;;;;;;;;;4989988;28;20046;-79
2022/01/20 08:57:14;;;;;;;9.77;4.00;;;;;;;;;;4991208;28;20026;-79
2022/01/20 08:59:42;;;;;;;9.15;4.40;;;;;;;;;;4996062;28;20022;-79
2022/01/20 09:02:08;;;;;;;10.45;4.40;;;;;;;;;;4996633;28;20042;-80
2022/01/20 09:04:35;;;;;;;10.50;4.72;;;;;;;;;;4998428;28;20038;-79
2022/01/20 09:07:01;;;;;;;11.43;5.40;;;;;;;;;;4994297;28;20029;-79
2022/01/20 09:09:28;;;;;;;12.23;5.18;;;;;;;;;;4991578;28;20097;-79
2022/01/20 09:12:16;;;;;;;13.15;6.15;;;;;;;;;;4983310;28;20030;-78
2022/01/20 09:17:28;;;;;;;15.45;8.40;;;;;;;;;;4983336;28;20045;-79
2022/01/20 09:19:56;;;;;;;14.90;8.93;;;;;;;;;;4981899;28;20056;-79
2022/01/20 09:22:23;;;;;;;21.10;11.75;;;;;;;;;;4981264;28;20038;-79
2022/01/20 09:24:49;;;;;;;22.35;12.95;;;;;;;;;;4985357;28;20023;-81
2022/01/20 09:27:16;;;;;;;20.35;12.73;;;;;;;;;;4982465;28;20026;-79
2022/01/20 09:29:42;;;;;;;;;;;;;;;;;;4985242;28;20022;-77
2022/01/20 09:32:12;;;;;;;21.33;13.50;;;;;;;;;;4982185;28;19918;-77
2022/01/20 09:34:38;;;;;;;19.70;11.82;;;;;;;;;;4981601;28;20041;-77
2022/01/20 09:37:04;;;;;;;17.88;11.63;;;;;;;;;;4982666;28;20022;-79
2022/01/20 09:39:30;;;;;;;18.15;10.52;;;;;;;;;;4984068;28;20026;-78
2022/01/20 09:41:58;;;;;;;13.73;7.13;;;;;;;;;;4985224;28;20030;-77
2022/01/20 09:44:24;;;;;;;13.85;7.47;;;;;;;;;;4986262;28;20057;-79
2022/01/20 09:46:50;;;;;;;;;;;;;;;;;;4984300;28;20029;-79
2022/01/20 09:49:17;;;;;;;12.27;6.70;;;;;;;;;;4987820;28;19963;-79
2022/01/20 09:51:43;;;;;;;10.15;4.82;;;;;;;;;;4986191;28;20088;-79
2022/01/20 09:54:09;;;;;;;;;;;;;;;;;;4995694;28;20493;-79
2022/01/20 09:56:36;;;;;;;12.80;6.53;;;;;;;;;;4984272;28;19913;-80
2022/01/20 09:59:03;;;;;;;12.50;6.53;;;;;;;;;;4998128;28;20034;-80
2022/01/20 10:01:46;;;;;;;13.52;5.28;;;;;;;;;;4999766;28;20041;-80
2022/01/20 10:04:23;;;;;;;8.57;3.20;;;;;;;;;;4993892;28;20421;-79
2022/01/20 10:06:55;;;;;;;10.00;3.30;;;;;;;;;;4996152;28;20091;-81
2022/01/20 10:09:36;;;;;;;10.45;4.78;;;;;;;;;;5000593;28;20121;-80
2022/01/20 10:12:04;;;;;;;12.55;6.25;;;;;;;;;;4993224;28;20644;-80
2022/01/20 10:14:50;;;;;;;16.02;8.65;;;;;;;;;;4994762;28;20030;-79
2022/01/20 10:17:20;;;;;;;19.85;8.93;;;;;;;;;;4997048;28;20025;-79
2022/01/20 10:19:47;;;;;;;19.52;10.00;;;;;;;;;;4989636;28;20499;-81
2022/01/20 10:22:14;;;;;;;20.70;11.48;;;;;;;;;;4990644;28;20495;-80
2022/01/20 10:24:41;;;;;;;26.77;15.07;;;;;;;;;;4987391;28;20499;-80
2022/01/20 10:27:13;;;;;;;15.02;8.02;;;;;;;;;;4984384;28;20030;-79
2022/01/20 10:29:39;;;;;;;11.93;5.93;;;;;;;;;;4987692;28;20034;-79
2022/01/20 10:32:05;;;;;;;16.42;8.63;;;;;;;;;;4983375;28;20034;-78
2022/01/20 10:34:35;;;;;;;11.05;5.72;;;;;;;;;;4981473;28;20026;-80
2022/01/20 10:37:02;;;;;;;12.70;6.75;;;;;;;;;;4982418;28;20042;-80
2022/01/20 10:39:29;;;;;;;12.90;6.60;;;;;;;;;;4986516;28;20060;-79
2022/01/20 10:42:04;;;;;;;12.02;6.75;;;;;;;;;;4978764;28;20909;-78
2022/01/20 10:44:40;;;;;;;13.82;7.63;;;;;;;;;;4979503;28;20041;-78
2022/01/20 10:47:11;;;;;;;15.60;9.68;;;;;;;;;;4979229;28;20034;-78
2022/01/20 10:49:38;;;;;;;13.57;7.25;;;;;;;;;;4981934;28;20033;-79
2022/01/20 10:52:05;;;;;;;13.27;7.43;;;;;;;;;;4980614;28;20516;-79
2022/01/20 10:54:51;;;;;;;10.75;5.00;;;;;;;;;;4979564;28;20038;-79
2022/01/20 10:57:24;;;;;;;9.52;4.40;;;;;;;;;;4981353;28;20117;-79
2022/01/20 10:59:52;;;;;;;9.82;5.05;;;;;;;;;;4981006;28;20017;-79
2022/01/20 11:02:20;;;;;;;13.10;7.28;;;;;;;;;;4982115;28;20033;-79
2022/01/20 11:04:47;;;;;;;13.27;7.70;;;;;;;;;;4976594;28;20026;-79
2022/01/20 11:07:13;;;;;;;11.73;6.00;;;;;;;;;;4977284;28;20040;-79
2022/01/20 11:09:43;;;;;;;8.30;3.28;;;;;;;;;;4982013;28;20125;-80
2022/01/20 11:12:14;;;;;;;8.18;2.80;;;;;;;;;;4975738;28;20064;-80
2022/01/20 11:14:41;;;;;;;7.68;2.70;;;;;;;;;;4979479;28;20053;-80
2022/01/20 11:17:07;;;;;;;7.13;2.47;;;;;;;;;;4978146;28;20030;-79
2022/01/20 11:19:37;;;;;;;8.10;2.70;;;;;;;;;;4983339;28;20047;-80
2022/01/20 11:22:08;;;;;;;9.88;3.60;;;;;;;;;;4975535;28;20056;-80
2022/01/20 11:24:34;;;;;;;7.22;2.78;;;;;;;;;;4982747;28;20100;-80
2022/01/20 11:27:01;;;;;;;6.32;2.42;;;;;;;;;;4977649;28;20145;-80
2022/01/20 11:29:39;;;;;;;6.32;2.38;;;;;;;;;;4980070;28;20025;-80
2022/01/20 11:32:22;;;;;;;7.55;2.80;;;;;;;;;;4975076;28;20038;-79
2022/01/20 11:34:57;;;;;;;8.00;3.00;;;;;;;;;;4975459;28;20060;-79
2022/01/20 11:37:24;;;;;;;7.07;2.95;;;;;;;;;;4982040;28;20121;-80
2022/01/20 11:39:54;;;;;;;7.75;2.70;;;;;;;;;;4981218;28;20037;-80
2022/01/20 11:42:22;;;;;;;7.45;2.30;;;;;;;;;;4977761;28;20080;-80
2022/01/20 11:44:48;;;;;;;7.25;2.50;;;;;;;;;;4976516;28;20073;-80
2022/01/20 11:47:14;;;;;;;8.35;2.97;;;;;;;;;;4982254;28;20068;-81
2022/01/20 11:49:45;;;;;;;8.23;2.97;;;;;;;;;;4979224;28;20518;-80
2022/01/20 11:52:22;;;;;;;11.07;4.70;;;;;;;;;;4984518;28;20034;-79
2022/01/20 11:55:02;;;;;;;8.13;3.30;;;;;;;;;;4978027;28;20025;-80
2022/01/20 11:57:30;;;;;;;9.07;3.35;;;;;;;;;;4979926;28;20051;-80
2022/01/20 12:00:01;;;;;;;7.22;2.53;;;;;;;;;;4977418;28;20559;-79
2022/01/20 12:02:27;;;;;;;8.98;3.28;;;;;;;;;;4983193;28;20030;-80
2022/01/20 12:04:53;;;;;;;11.50;4.88;;;;;;;;;;4977783;28;20033;-81
2022/01/20 12:07:30;;;;;;;7.10;2.67;;;;;;;;;;4977667;28;20057;-81
2022/01/20 12:10:09;;;;;;;6.72;2.78;;;;;;;;;;4977243;28;20616;-80
2022/01/20 12:12:36;;;;;;;7.43;2.42;;;;;;;;;;4978351;28;20124;-80
2022/01/20 12:15:12;;;;;;;6.95;2.47;;;;;;;;;;4976507;28;20740;-80
2022/01/20 12:17:41;;;;;;;7.28;2.55;;;;;;;;;;4979968;28;20030;-80
2022/01/20 12:20:10;;;;;;;8.80;3.90;;;;;;;;;;4984358;28;20046;-80
2022/01/20 12:22:41;;;;;;;7.97;3.20;;;;;;;;;;4983215;28;20526;-81
2022/01/20 12:25:07;;;;;;;7.55;3.28;;;;;;;;;;4982029;28;20030;-80
2022/01/20 12:27:33;;;;;;;6.75;2.70;;;;;;;;;;4986491;28;20084;-80
2022/01/20 12:30:00;;;;;;;12.60;8.60;;;;;;;;;;4983518;28;20048;-79
2022/01/20 12:32:27;;;;;;;;;;;;;;;;;;4978991;28;20104;-81
2022/01/20 12:34:57;;;;;;;10.70;6.00;;;;;;;;;;4976863;28;19952;-81
2022/01/20 12:37:32;;;;;;;10.40;4.75;;;;;;;;;;4977226;28;20532;-81
2022/01/20 12:39:58;;;;;;;8.43;4.15;;;;;;;;;;4979983;28;20021;-81
2022/01/20 12:42:32;;;;;;;8.85;4.50;;;;;;;;;;4977576;28;20053;-80
2022/01/20 12:47:48;;;;;;;12.80;7.55;;;;;;;;;;4979415;28;20034;-81
2022/01/20 12:50:14;;;;;;;46.80;41.90;;;;;;;;;;4972398;28;20048;-81
2022/01/20 12:52:47;;;;;;;70.63;63.42;;;;;;;;;;4982721;28;20041;-81
2022/01/20 12:55:13;;;;;;;29.42;25.02;;;;;;;;;;4971176;28;20034;-81
2022/01/20 12:57:41;;;;;;;18.05;13.18;;;;;;;;;;4988227;28;20948;-81
2022/01/20 13:00:08;;;;;;;22.25;16.80;;;;;;;;;;4983950;28;20546;-81
2022/01/20 13:02:35;;;;;;;13.38;8.90;;;;;;;;;;4992447;28;20507;-82
2022/01/20 13:05:02;;;;;;;13.73;8.20;;;;;;;;;;4968799;28;20133;-79
2022/01/20 13:07:30;;;;;;;14.07;10.40;;;;;;;;;;4990451;28;20226;-81
2022/01/20 13:10:05;;;;;;;11.80;6.93;;;;;;;;;;4968533;28;20558;-81
2022/01/20 13:12:41;;;;;;;9.88;4.13;;;;;;;;;;4975849;28;20042;-80
2022/01/20 13:15:16;;;;;;;8.85;4.07;;;;;;;;;;4969839;28;20080;-80
2022/01/20 13:17:43;;;;;;;8.82;4.47;;;;;;;;;;4976304;28;20041;-81
2022/01/20 13:20:16;;;;;;;8.70;3.95;;;;;;;;;;4971639;28;20882;-80
2022/01/20 13:25:14;;;;;;;8.60;3.72;;;;;;;;;;4966225;28;20043;-80
2022/01/20 13:27:53;;;;;;;10.07;4.28;;;;;;;;;;4949052;28;20122;-80
2022/01/20 13:30:36;;;;;;;9.80;4.38;;;;;;;;;;4944555;28;20034;-82
2022/01/20 13:33:07;;;;;;;10.07;4.50;;;;;;;;;;4943632;28;20153;-80
2022/01/20 13:35:40;;;;;;;10.05;4.10;;;;;;;;;;4947534;28;20023;-79
2022/01/20 13:38:08;;;;;;;12.82;5.85;;;;;;;;;;4944576;28;20050;-79
2022/01/20 13:40:35;;;;;;;10.82;5.18;;;;;;;;;;4948130;28;20054;-79
2022/01/20 13:46:41;;;;;;;;;;;;;;;;;;;;;
2022/01/20 13:49:18;;;;;;;7.47;3.00;;;;;;;;;;4946891;28;20031;-80
2022/01/20 13:51:45;;;;;;;7.75;2.83;;;;;;;;;;4944654;28;20230;-80
2022/01/20 13:54:11;;;;;;;7.55;2.90;;;;;;;;;;4946398;28;20491;-80
2022/01/20 13:56:38;;;;;;;7.13;2.88;;;;;;;;;;4943312;28;20044;-80
2022/01/20 13:59:09;;;;;;;6.85;2.60;;;;;;;;;;4944680;28;20030;-80
2022/01/20 14:01:35;;;;;;;6.55;2.83;;;;;;;;;;4925187;28;20042;-80
2022/01/20 14:04:02;;;;;;;6.50;2.90;;;;;;;;;;4924433;28;20050;-80
2022/01/20 14:06:28;;;;;;;8.80;3.10;;;;;;;;;;4924261;28;20138;-81
2022/01/20 14:08:54;;;;;;;8.18;3.28;;;;;;;;;;4920578;28;20030;-80
2022/01/20 14:11:21;;;;;;;10.25;4.30;;;;;;;;;;4942259;28;20062;-80
2022/01/20 14:13:48;;;;;;;10.40;4.63;;;;;;;;;;4928066;28;20038;-80
2022/01/20 14:16:14;;;;;;;11.23;6.25;;;;;;;;;;4926919;28;20105;-80
2022/01/20 14:18:45;;;;;;;11.80;6.40;;;;;;;;;;4925841;28;20027;-80
2022/01/20 14:21:12;;;;;;;12.30;6.43;;;;;;;;;;4944464;28;20054;-79
2022/01/20 14:23:38;;;;;;;11.70;5.65;;;;;;;;;;4939352;28;20105;-80
2022/01/20 14:26:05;;;;;;;10.23;5.30;;;;;;;;;;4937227;28;20038;-79
2022/01/20 14:28:32;;;;;;;10.50;5.10;;;;;;;;;;4938229;28;20023;-80
2022/01/20 14:30:58;;;;;;;11.10;5.60;;;;;;;;;;4937919;28;20034;-80
2022/01/20 14:33:25;;;;;;;11.57;5.60;;;;;;;;;;4944587;28;20030;-81
2022/01/20 14:35:51;;;;;;;11.50;5.90;;;;;;;;;;4939389;28;20138;-81
2022/01/20 14:38:18;;;;;;;10.60;4.93;;;;;;;;;;4943277;28;20101;-80
2022/01/20 14:40:44;;;;;;;9.95;4.72;;;;;;;;;;4941389;28;20030;-80
2022/01/20 14:43:10;;;;;;;12.20;6.50;;;;;;;;;;4949431;28;20019;-80
2022/01/20 14:45:36;;;;;;;12.02;6.60;;;;;;;;;;4943650;28;20015;-80
2022/01/20 14:48:03;;;;;;;10.90;6.20;;;;;;;;;;4942322;28;20896;-80
2022/01/20 14:50:29;;;;;;;10.40;5.47;;;;;;;;;;4943113;28;20031;-81
2022/01/20 14:52:56;;;;;;;9.82;5.32;;;;;;;;;;4944052;28;20861;-80
2022/01/20 14:55:22;;;;;;;9.98;5.05;;;;;;;;;;4944048;28;20050;-79
2022/01/20 14:57:48;;;;;;;9.23;4.07;;;;;;;;;;4943139;28;20031;-79
2022/01/20 15:00:15;;;;;;;9.13;4.80;;;;;;;;;;4943648;28;20039;-80
2022/01/20 15:02:47;;;;;;;9.18;4.20;;;;;;;;;;4941756;28;20039;-79
2022/01/20 15:05:14;;;;;;;9.45;4.90;;;;;;;;;;4941046;28;20078;-79
2022/01/20 15:07:40;;;;;;;11.23;5.55;;;;;;;;;;4948041;28;20125;-81
2022/01/20 15:10:08;;;;;;;9.88;5.57;;;;;;;;;;4946090;28;20045;-80
2022/01/20 15:12:36;;;;;;;11.20;6.50;;;;;;;;;;4942538;28;20027;-80
2022/01/20 15:15:04;;;;;;;10.60;6.00;;;;;;;;;;4941801;28;20834;-80
2022/01/20 15:17:30;;;;;;;9.48;5.35;;;;;;;;;;4947525;28;20058;-80
2022/01/20 15:19:56;;;;;;;10.18;5.57;;;;;;;;;;4954088;28;20073;-80
2022/01/20 15:22:22;;;;;;;11.57;6.70;;;;;;;;;;4981669;28;20034;-80
2022/01/20 15:24:48;;;;;;;12.18;6.85;;;;;;;;;;4979679;28;20038;-80
2022/01/20 15:27:15;;;;;;;12.80;7.50;;;;;;;;;;4986581;28;20577;-80
2022/01/20 15:29:41;;;;;;;11.90;6.72;;;;;;;;;;4989857;28;20028;-80
2022/01/20 15:32:07;;;;;;;12.07;6.63;;;;;;;;;;4986184;28;20083;-80
2022/01/20 15:34:33;;;;;;;15.32;8.88;;;;;;;;;;4982352;28;20033;-79
2022/01/20 15:36:59;;;;;;;16.70;10.55;;;;;;;;;;4986062;28;20882;-80
2022/01/20 15:39:25;;;;;;;17.52;11.77;;;;;;;;;;4984645;28;20026;-79
2022/01/20 15:41:52;;;;;;;21.33;14.25;;;;;;;;;;4980360;28;20623;-80
2022/01/20 15:44:18;;;;;;;20.05;13.60;;;;;;;;;;4978623;28;20512;-79
2022/01/20 15:46:44;;;;;;;15.43;9.25;;;;;;;;;;4981588;28;20022;-79
2022/01/20 15:49:11;;;;;;;12.77;7.93;;;;;;;;;;4980116;28;20035;-79
2022/01/20 15:51:37;;;;;;;14.07;8.68;;;;;;;;;;4983065;28;20092;-80
2022/01/20 15:54:04;;;;;;;11.45;6.40;;;;;;;;;;4978346;28;20034;-81
2022/01/20 15:56:30;;;;;;;10.65;6.07;;;;;;;;;;4980309;28;20056;-81
2022/01/20 15:58:57;;;;;;;11.10;5.65;;;;;;;;;;4982774;28;20026;-81
2022/01/20 16:01:24;;;;;;;10.57;5.93;;;;;;;;;;4981640;28;20532;-81
2022/01/20 16:03:50;;;;;;;11.32;6.00;;;;;;;;;;4979617;28;20034;-80
2022/01/20 16:06:16;;;;;;;12.00;6.18;;;;;;;;;;4982828;28;20814;-78
2022/01/20 16:08:42;;;;;;;11.65;6.05;;;;;;;;;;4982578;28;20057;-80